Airfield :
LOGIN :

Register | Disclaimer

   EN    FR    IT 

 










Legend :    VFR   Marginal VFR   IFR   Intensive IFR   Very Intensive IFR
Visi :
Ceiling :
>= 8 km
>= 3000ft
5 to 8 km
1000 to 3000 ft
1500m to 5 km
500 to 1000 ft
800 to 1500m
200 to 500 ft
< 800m
< 200 ft
Symbols :   Thunderstorms  Fog  Heavy snow  Heavy precipitations  Wind > 20 kt
SIGMETs :     Misc.  Thunderstorms  Icing  Turbulence  Mountain Waves  Volcanic Ashes






- Airport Elevation : 86 ft
- IATA code : HAU


ENHD - Haugesund

CURRENT METAR :
  • 200220Z AUTO 22010KT 6000 -RA BKN030/// OVC036/// 07/06 Q1036

EXPIRED METARs :
  • 200150Z AUTO 20010KT 7000 -RA ///038/// 07/06 Q1035
  • 200120Z AUTO 20011KT 8000 DZ OVC037/// 07/06 Q1036 REDZ
  • 200050Z AUTO 22012KT 9000 UP BKN044/// 07/06 Q1036 REDZ
  • 200020Z AUTO 21011KT 9999 SCT011/// BKN049/// 07/06 Q1037
  • 192350Z AUTO 19008KT 9999 NCD 07/05 Q1036

TAF TAF ENHD
Valid from the 20 at 03:00 until the 20 at 12:00 UTC


200200Z 2003/2012 22012KT 9000 -RA FEW008 BKN020
TEMPO 2003/2012 4000 DZRA BKN012



MET'MAP, your aeronautical weather chart ! - Copyright ORBIFLY December 2007 - Disclaimer

ORBIFLY MET'MAP TEAM :

Programming & Development : Alexandra Zaïnal
Concept & original design : Baudouin d'Aumeries
Assistance for programming : Marc-Olivier Méhu
Technical & hardware support : Manuel Goepfert

Contact : metmap@orbifly.com




SOURCES & CREDITS :

   NOAA